sensor_id;sensor_type;location;lat;lon;timestamp;P1;durP1;ratioP1;P2;durP2;ratioP2
58756;SDS011;44527;47.460;19.016;2024-02-23T00:00:09;4.85;;;1.50;;
58756;SDS011;44527;47.460;19.016;2024-02-23T00:03:13;4.80;;;1.95;;
58756;SDS011;44527;47.460;19.016;2024-02-23T00:06:15;5.07;;;1.95;;
58756;SDS011;44527;47.460;19.016;2024-02-23T00:09:18;2.37;;;1.48;;
58756;SDS011;44527;47.460;19.016;2024-02-23T00:12:21;3.70;;;1.85;;
58756;SDS011;44527;47.460;19.016;2024-02-23T00:15:23;2.83;;;1.67;;
58756;SDS011;44527;47.460;19.016;2024-02-23T00:18:27;3.35;;;1.75;;
58756;SDS011;44527;47.460;19.016;2024-02-23T00:21:30;3.65;;;1.60;;
58756;SDS011;44527;47.460;19.016;2024-02-23T00:24:32;3.92;;;1.67;;
58756;SDS011;44527;47.460;19.016;2024-02-23T00:27:35;4.57;;;1.98;;
58756;SDS011;44527;47.460;19.016;2024-02-23T00:30:37;5.05;;;1.65;;
58756;SDS011;44527;47.460;19.016;2024-02-23T00:33:40;6.40;;;2.00;;
58756;SDS011;44527;47.460;19.016;2024-02-23T00:36:44;4.47;;;2.05;;
58756;SDS011;44527;47.460;19.016;2024-02-23T00:39:47;4.68;;;2.15;;
58756;SDS011;44527;47.460;19.016;2024-02-23T00:42:50;2.60;;;1.80;;
58756;SDS011;44527;47.460;19.016;2024-02-23T00:45:52;4.30;;;2.12;;
58756;SDS011;44527;47.460;19.016;2024-02-23T00:48:54;3.33;;;1.90;;
58756;SDS011;44527;47.460;19.016;2024-02-23T00:51:57;4.60;;;1.70;;
58756;SDS011;44527;47.460;19.016;2024-02-23T00:55:00;2.42;;;1.77;;
58756;SDS011;44527;47.460;19.016;2024-02-23T00:58:02;1.55;;;1.12;;
58756;SDS011;44527;47.460;19.016;2024-02-23T01:01:05;3.45;;;1.98;;
58756;SDS011;44527;47.460;19.016;2024-02-23T01:04:08;4.00;;;2.03;;
58756;SDS011;44527;47.460;19.016;2024-02-23T01:07:10;3.35;;;1.73;;
58756;SDS011;44527;47.460;19.016;2024-02-23T01:10:13;5.78;;;1.60;;
58756;SDS011;44527;47.460;19.016;2024-02-23T01:13:15;3.92;;;1.87;;
58756;SDS011;44527;47.460;19.016;2024-02-23T01:16:18;3.95;;;2.05;;
58756;SDS011;44527;47.460;19.016;2024-02-23T01:19:20;4.53;;;2.15;;
58756;SDS011;44527;47.460;19.016;2024-02-23T01:22:23;5.75;;;2.15;;
58756;SDS011;44527;47.460;19.016;2024-02-23T01:25:25;3.83;;;1.75;;
58756;SDS011;44527;47.460;19.016;2024-02-23T01:28:28;4.47;;;2.33;;
58756;SDS011;44527;47.460;19.016;2024-02-23T01:31:30;3.97;;;2.20;;
58756;SDS011;44527;47.460;19.016;2024-02-23T01:34:33;5.78;;;2.15;;
58756;SDS011;44527;47.460;19.016;2024-02-23T01:37:35;6.82;;;2.30;;
58756;SDS011;44527;47.460;19.016;2024-02-23T01:40:39;4.62;;;1.90;;
58756;SDS011;44527;47.460;19.016;2024-02-23T01:43:41;4.55;;;2.30;;
58756;SDS011;44527;47.460;19.016;2024-02-23T01:46:44;4.60;;;2.30;;
58756;SDS011;44527;47.460;19.016;2024-02-23T01:49:47;4.80;;;2.10;;
58756;SDS011;44527;47.460;19.016;2024-02-23T01:52:50;4.87;;;2.53;;
58756;SDS011;44527;47.460;19.016;2024-02-23T01:55:54;3.53;;;2.05;;
58756;SDS011;44527;47.460;19.016;2024-02-23T01:58:57;4.90;;;2.30;;
58756;SDS011;44527;47.460;19.016;2024-02-23T02:02:01;3.47;;;1.90;;
58756;SDS011;44527;47.460;19.016;2024-02-23T02:05:05;5.37;;;2.33;;
58756;SDS011;44527;47.460;19.016;2024-02-23T02:08:09;6.10;;;2.37;;
58756;SDS011;44527;47.460;19.016;2024-02-23T02:11:13;5.32;;;2.47;;
58756;SDS011;44527;47.460;19.016;2024-02-23T02:14:16;3.30;;;2.00;;
58756;SDS011;44527;47.460;19.016;2024-02-23T02:17:19;5.00;;;2.10;;
58756;SDS011;44527;47.460;19.016;2024-02-23T02:20:23;5.62;;;2.10;;
58756;SDS011;44527;47.460;19.016;2024-02-23T02:23:28;5.82;;;2.42;;
58756;SDS011;44527;47.460;19.016;2024-02-23T02:26:30;3.80;;;2.25;;
58756;SDS011;44527;47.460;19.016;2024-02-23T02:29:34;3.12;;;1.60;;
58756;SDS011;44527;47.460;19.016;2024-02-23T02:32:37;5.40;;;2.30;;
58756;SDS011;44527;47.460;19.016;2024-02-23T02:35:40;5.78;;;1.80;;
58756;SDS011;44527;47.460;19.016;2024-02-23T02:38:42;4.30;;;2.15;;
58756;SDS011;44527;47.460;19.016;2024-02-23T02:41:45;5.40;;;2.55;;
58756;SDS011;44527;47.460;19.016;2024-02-23T02:44:47;3.28;;;2.03;;
58756;SDS011;44527;47.460;19.016;2024-02-23T02:47:50;3.50;;;2.03;;
58756;SDS011;44527;47.460;19.016;2024-02-23T02:50:52;4.18;;;2.53;;
58756;SDS011;44527;47.460;19.016;2024-02-23T02:53:55;3.87;;;2.05;;
58756;SDS011;44527;47.460;19.016;2024-02-23T02:56:58;6.03;;;2.20;;
58756;SDS011;44527;47.460;19.016;2024-02-23T03:00:00;20.37;;;2.25;;
58756;SDS011;44527;47.460;19.016;2024-02-23T03:03:03;4.05;;;1.90;;
58756;SDS011;44527;47.460;19.016;2024-02-23T03:06:07;5.50;;;2.12;;
58756;SDS011;44527;47.460;19.016;2024-02-23T03:09:09;6.70;;;1.83;;
58756;SDS011;44527;47.460;19.016;2024-02-23T03:12:12;2.97;;;1.87;;
58756;SDS011;44527;47.460;19.016;2024-02-23T03:15:14;7.03;;;2.30;;
58756;SDS011;44527;47.460;19.016;2024-02-23T03:18:17;4.85;;;2.28;;
58756;SDS011;44527;47.460;19.016;2024-02-23T03:21:19;5.03;;;2.30;;
58756;SDS011;44527;47.460;19.016;2024-02-23T03:24:22;4.47;;;2.17;;
58756;SDS011;44527;47.460;19.016;2024-02-23T03:27:27;5.10;;;2.47;;
58756;SDS011;44527;47.460;19.016;2024-02-23T03:30:31;4.18;;;2.42;;
58756;SDS011;44527;47.460;19.016;2024-02-23T03:33:38;3.58;;;2.08;;
58756;SDS011;44527;47.460;19.016;2024-02-23T03:36:41;4.00;;;2.30;;
58756;SDS011;44527;47.460;19.016;2024-02-23T03:39:43;3.37;;;1.98;;
58756;SDS011;44527;47.460;19.016;2024-02-23T03:42:46;6.32;;;2.58;;
58756;SDS011;44527;47.460;19.016;2024-02-23T03:45:49;3.03;;;1.85;;
58756;SDS011;44527;47.460;19.016;2024-02-23T03:48:53;4.35;;;2.85;;
58756;SDS011;44527;47.460;19.016;2024-02-23T03:51:55;4.82;;;2.40;;
58756;SDS011;44527;47.460;19.016;2024-02-23T03:54:57;8.00;;;2.83;;
58756;SDS011;44527;47.460;19.016;2024-02-23T03:58:00;5.15;;;2.85;;
58756;SDS011;44527;47.460;19.016;2024-02-23T04:01:02;5.35;;;2.80;;
58756;SDS011;44527;47.460;19.016;2024-02-23T04:04:05;5.12;;;2.55;;
58756;SDS011;44527;47.460;19.016;2024-02-23T04:07:08;3.50;;;1.98;;
58756;SDS011;44527;47.460;19.016;2024-02-23T04:10:10;7.90;;;2.20;;
58756;SDS011;44527;47.460;19.016;2024-02-23T04:13:17;6.43;;;2.33;;
58756;SDS011;44527;47.460;19.016;2024-02-23T04:16:23;5.30;;;2.37;;
58756;SDS011;44527;47.460;19.016;2024-02-23T04:19:26;3.83;;;2.35;;
58756;SDS011;44527;47.460;19.016;2024-02-23T04:22:29;6.18;;;2.25;;
58756;SDS011;44527;47.460;19.016;2024-02-23T04:25:31;5.55;;;2.42;;
58756;SDS011;44527;47.460;19.016;2024-02-23T04:28:34;4.20;;;2.22;;
58756;SDS011;44527;47.460;19.016;2024-02-23T04:31:39;6.22;;;2.80;;
58756;SDS011;44527;47.460;19.016;2024-02-23T04:34:42;4.15;;;2.50;;
58756;SDS011;44527;47.460;19.016;2024-02-23T04:37:44;17.10;;;4.32;;
58756;SDS011;44527;47.460;19.016;2024-02-23T04:40:47;4.80;;;2.42;;
58756;SDS011;44527;47.460;19.016;2024-02-23T04:43:49;6.30;;;2.22;;
58756;SDS011;44527;47.460;19.016;2024-02-23T04:46:52;7.95;;;3.17;;
58756;SDS011;44527;47.460;19.016;2024-02-23T04:49:55;5.30;;;2.25;;
58756;SDS011;44527;47.460;19.016;2024-02-23T04:52:57;5.95;;;1.87;;
58756;SDS011;44527;47.460;19.016;2024-02-23T04:56:00;3.47;;;2.00;;
58756;SDS011;44527;47.460;19.016;2024-02-23T04:59:02;3.28;;;1.83;;
58756;SDS011;44527;47.460;19.016;2024-02-23T05:02:05;6.60;;;2.10;;
58756;SDS011;44527;47.460;19.016;2024-02-23T05:05:08;4.37;;;2.40;;
58756;SDS011;44527;47.460;19.016;2024-02-23T05:08:11;4.75;;;1.60;;
58756;SDS011;44527;47.460;19.016;2024-02-23T05:11:14;4.80;;;2.08;;
58756;SDS011;44527;47.460;19.016;2024-02-23T05:14:18;2.90;;;1.77;;
58756;SDS011;44527;47.460;19.016;2024-02-23T05:17:21;5.50;;;1.60;;
58756;SDS011;44527;47.460;19.016;2024-02-23T05:20:23;3.00;;;1.62;;
58756;SDS011;44527;47.460;19.016;2024-02-23T05:23:26;3.40;;;1.80;;
58756;SDS011;44527;47.460;19.016;2024-02-23T05:26:28;3.83;;;1.80;;
58756;SDS011;44527;47.460;19.016;2024-02-23T05:29:31;2.87;;;1.75;;
58756;SDS011;44527;47.460;19.016;2024-02-23T05:32:33;3.33;;;1.92;;
58756;SDS011;44527;47.460;19.016;2024-02-23T05:35:36;3.85;;;1.52;;
58756;SDS011;44527;47.460;19.016;2024-02-23T05:38:39;3.40;;;1.95;;
58756;SDS011;44527;47.460;19.016;2024-02-23T05:41:41;2.47;;;1.52;;
58756;SDS011;44527;47.460;19.016;2024-02-23T05:44:44;5.57;;;1.60;;
58756;SDS011;44527;47.460;19.016;2024-02-23T05:47:47;4.75;;;1.58;;
58756;SDS011;44527;47.460;19.016;2024-02-23T05:50:50;2.37;;;1.42;;
58756;SDS011;44527;47.460;19.016;2024-02-23T05:53:52;2.40;;;1.58;;
58756;SDS011;44527;47.460;19.016;2024-02-23T05:56:55;3.90;;;1.80;;
58756;SDS011;44527;47.460;19.016;2024-02-23T05:59:58;4.47;;;2.05;;
58756;SDS011;44527;47.460;19.016;2024-02-23T06:03:01;3.95;;;1.95;;
58756;SDS011;44527;47.460;19.016;2024-02-23T06:06:06;9.90;;;2.42;;
58756;SDS011;44527;47.460;19.016;2024-02-23T06:09:10;3.33;;;1.73;;
58756;SDS011;44527;47.460;19.016;2024-02-23T06:12:12;5.50;;;2.12;;
58756;SDS011;44527;47.460;19.016;2024-02-23T06:15:15;5.15;;;2.35;;
58756;SDS011;44527;47.460;19.016;2024-02-23T06:18:17;5.93;;;1.75;;
58756;SDS011;44527;47.460;19.016;2024-02-23T06:21:19;7.30;;;2.47;;
58756;SDS011;44527;47.460;19.016;2024-02-23T06:24:23;4.68;;;2.55;;
58756;SDS011;44527;47.460;19.016;2024-02-23T06:27:25;6.28;;;2.50;;
58756;SDS011;44527;47.460;19.016;2024-02-23T06:30:29;3.75;;;2.50;;
58756;SDS011;44527;47.460;19.016;2024-02-23T06:33:32;5.43;;;2.83;;
58756;SDS011;44527;47.460;19.016;2024-02-23T06:36:34;4.37;;;2.20;;
58756;SDS011;44527;47.460;19.016;2024-02-23T06:39:37;10.00;;;2.60;;
58756;SDS011;44527;47.460;19.016;2024-02-23T06:42:40;5.62;;;2.62;;
58756;SDS011;44527;47.460;19.016;2024-02-23T06:45:43;6.22;;;2.70;;
58756;SDS011;44527;47.460;19.016;2024-02-23T06:48:46;7.72;;;2.92;;
58756;SDS011;44527;47.460;19.016;2024-02-23T06:51:48;6.25;;;2.50;;
58756;SDS011;44527;47.460;19.016;2024-02-23T06:54:51;8.45;;;3.37;;
58756;SDS011;44527;47.460;19.016;2024-02-23T06:57:55;4.93;;;2.90;;
58756;SDS011;44527;47.460;19.016;2024-02-23T07:00:57;6.82;;;2.75;;
58756;SDS011;44527;47.460;19.016;2024-02-23T07:03:59;5.85;;;2.97;;
58756;SDS011;44527;47.460;19.016;2024-02-23T07:07:02;8.57;;;2.80;;
58756;SDS011;44527;47.460;19.016;2024-02-23T07:10:09;6.40;;;2.60;;
58756;SDS011;44527;47.460;19.016;2024-02-23T07:13:13;5.80;;;2.87;;
58756;SDS011;44527;47.460;19.016;2024-02-23T07:16:15;6.28;;;3.17;;
58756;SDS011;44527;47.460;19.016;2024-02-23T07:19:18;5.35;;;2.65;;
58756;SDS011;44527;47.460;19.016;2024-02-23T07:22:22;5.18;;;2.97;;
58756;SDS011;44527;47.460;19.016;2024-02-23T07:25:24;7.70;;;2.97;;
58756;SDS011;44527;47.460;19.016;2024-02-23T07:28:27;4.87;;;2.97;;
58756;SDS011;44527;47.460;19.016;2024-02-23T07:31:33;11.52;;;3.10;;
58756;SDS011;44527;47.460;19.016;2024-02-23T07:34:37;6.25;;;2.60;;
58756;SDS011;44527;47.460;19.016;2024-02-23T07:37:40;6.35;;;2.80;;
58756;SDS011;44527;47.460;19.016;2024-02-23T07:40:42;4.80;;;2.62;;
58756;SDS011;44527;47.460;19.016;2024-02-23T07:43:44;6.03;;;3.35;;
58756;SDS011;44527;47.460;19.016;2024-02-23T07:46:47;8.88;;;3.10;;
58756;SDS011;44527;47.460;19.016;2024-02-23T07:49:49;7.37;;;3.22;;
58756;SDS011;44527;47.460;19.016;2024-02-23T07:52:54;7.30;;;3.37;;
58756;SDS011;44527;47.460;19.016;2024-02-23T07:55:58;6.87;;;3.37;;
58756;SDS011;44527;47.460;19.016;2024-02-23T07:59:04;10.15;;;3.60;;
58756;SDS011;44527;47.460;19.016;2024-02-23T08:02:06;6.40;;;3.20;;
58756;SDS011;44527;47.460;19.016;2024-02-23T08:05:09;4.95;;;2.65;;
58756;SDS011;44527;47.460;19.016;2024-02-23T08:08:12;7.95;;;3.55;;
58756;SDS011;44527;47.460;19.016;2024-02-23T08:11:15;5.80;;;3.22;;
58756;SDS011;44527;47.460;19.016;2024-02-23T08:14:17;11.02;;;3.65;;
58756;SDS011;44527;47.460;19.016;2024-02-23T08:17:20;7.70;;;3.45;;
58756;SDS011;44527;47.460;19.016;2024-02-23T08:20:23;6.50;;;3.22;;
58756;SDS011;44527;47.460;19.016;2024-02-23T08:23:26;11.00;;;3.78;;
58756;SDS011;44527;47.460;19.016;2024-02-23T08:26:28;6.75;;;3.70;;
58756;SDS011;44527;47.460;19.016;2024-02-23T08:29:31;6.85;;;3.78;;
58756;SDS011;44527;47.460;19.016;2024-02-23T08:32:40;11.12;;;4.47;;
58756;SDS011;44527;47.460;19.016;2024-02-23T08:35:43;4.85;;;3.08;;
58756;SDS011;44527;47.460;19.016;2024-02-23T08:38:45;7.60;;;3.80;;
58756;SDS011;44527;47.460;19.016;2024-02-23T08:41:51;6.65;;;3.45;;
58756;SDS011;44527;47.460;19.016;2024-02-23T08:44:54;6.60;;;3.62;;
58756;SDS011;44527;47.460;19.016;2024-02-23T08:47:57;8.90;;;4.07;;
58756;SDS011;44527;47.460;19.016;2024-02-23T08:51:00;17.48;;;4.37;;
58756;SDS011;44527;47.460;19.016;2024-02-23T08:54:02;7.10;;;3.83;;
58756;SDS011;44527;47.460;19.016;2024-02-23T08:57:07;10.02;;;3.78;;
58756;SDS011;44527;47.460;19.016;2024-02-23T09:00:10;6.72;;;3.37;;
58756;SDS011;44527;47.460;19.016;2024-02-23T09:03:16;10.75;;;3.78;;
58756;SDS011;44527;47.460;19.016;2024-02-23T09:06:20;7.75;;;4.50;;
58756;SDS011;44527;47.460;19.016;2024-02-23T09:09:22;6.00;;;3.58;;
58756;SDS011;44527;47.460;19.016;2024-02-23T09:12:26;6.65;;;3.90;;
58756;SDS011;44527;47.460;19.016;2024-02-23T09:15:28;7.22;;;3.30;;
58756;SDS011;44527;47.460;19.016;2024-02-23T09:18:31;6.03;;;3.05;;
58756;SDS011;44527;47.460;19.016;2024-02-23T09:21:33;5.32;;;3.15;;
58756;SDS011;44527;47.460;19.016;2024-02-23T09:24:39;11.10;;;3.40;;
58756;SDS011;44527;47.460;19.016;2024-02-23T09:27:42;5.65;;;3.40;;
58756;SDS011;44527;47.460;19.016;2024-02-23T09:30:50;6.45;;;3.37;;
58756;SDS011;44527;47.460;19.016;2024-02-23T09:33:52;7.18;;;3.58;;
58756;SDS011;44527;47.460;19.016;2024-02-23T09:36:55;8.98;;;3.50;;
58756;SDS011;44527;47.460;19.016;2024-02-23T09:39:57;7.72;;;3.65;;
58756;SDS011;44527;47.460;19.016;2024-02-23T09:43:00;10.00;;;3.92;;
58756;SDS011;44527;47.460;19.016;2024-02-23T09:46:02;8.10;;;3.58;;
58756;SDS011;44527;47.460;19.016;2024-02-23T09:49:05;6.22;;;3.25;;
58756;SDS011;44527;47.460;19.016;2024-02-23T09:52:10;6.90;;;3.75;;
58756;SDS011;44527;47.460;19.016;2024-02-23T09:55:13;5.57;;;3.10;;
58756;SDS011;44527;47.460;19.016;2024-02-23T09:58:15;7.05;;;3.28;;
58756;SDS011;44527;47.460;19.016;2024-02-23T10:01:21;10.50;;;3.30;;
58756;SDS011;44527;47.460;19.016;2024-02-23T10:04:35;6.25;;;3.53;;
58756;SDS011;44527;47.460;19.016;2024-02-23T10:07:38;6.60;;;3.25;;
58756;SDS011;44527;47.460;19.016;2024-02-23T10:10:41;6.10;;;3.42;;
58756;SDS011;44527;47.460;19.016;2024-02-23T10:13:43;7.28;;;3.17;;
58756;SDS011;44527;47.460;19.016;2024-02-23T10:16:46;5.32;;;3.20;;
58756;SDS011;44527;47.460;19.016;2024-02-23T10:19:49;9.32;;;3.05;;
58756;SDS011;44527;47.460;19.016;2024-02-23T10:22:52;8.18;;;3.70;;
58756;SDS011;44527;47.460;19.016;2024-02-23T10:25:56;10.45;;;4.37;;
58756;SDS011;44527;47.460;19.016;2024-02-23T10:28:58;9.95;;;3.83;;
58756;SDS011;44527;47.460;19.016;2024-02-23T10:32:01;8.73;;;3.80;;
58756;SDS011;44527;47.460;19.016;2024-02-23T10:35:09;7.87;;;4.25;;
58756;SDS011;44527;47.460;19.016;2024-02-23T10:38:16;8.27;;;4.43;;
58756;SDS011;44527;47.460;19.016;2024-02-23T10:41:20;9.80;;;4.15;;
58756;SDS011;44527;47.460;19.016;2024-02-23T10:44:23;8.00;;;3.87;;
58756;SDS011;44527;47.460;19.016;2024-02-23T10:47:35;9.25;;;4.35;;
58756;SDS011;44527;47.460;19.016;2024-02-23T10:50:39;7.47;;;4.45;;
58756;SDS011;44527;47.460;19.016;2024-02-23T10:53:48;7.43;;;3.97;;
58756;SDS011;44527;47.460;19.016;2024-02-23T10:56:52;7.90;;;4.30;;
58756;SDS011;44527;47.460;19.016;2024-02-23T10:59:55;7.55;;;4.07;;
58756;SDS011;44527;47.460;19.016;2024-02-23T11:02:57;13.10;;;4.25;;
58756;SDS011;44527;47.460;19.016;2024-02-23T11:06:01;7.62;;;3.80;;
58756;SDS011;44527;47.460;19.016;2024-02-23T11:09:06;7.95;;;4.55;;
58756;SDS011;44527;47.460;19.016;2024-02-23T11:12:12;7.00;;;3.92;;
58756;SDS011;44527;47.460;19.016;2024-02-23T11:15:28;8.45;;;3.78;;
58756;SDS011;44527;47.460;19.016;2024-02-23T11:18:31;7.20;;;4.10;;
58756;SDS011;44527;47.460;19.016;2024-02-23T11:21:36;9.50;;;4.50;;
58756;SDS011;44527;47.460;19.016;2024-02-23T11:24:44;10.20;;;4.60;;
58756;SDS011;44527;47.460;19.016;2024-02-23T11:27:51;6.57;;;3.90;;
58756;SDS011;44527;47.460;19.016;2024-02-23T11:30:54;10.38;;;4.07;;
58756;SDS011;44527;47.460;19.016;2024-02-23T11:33:57;10.27;;;4.80;;
58756;SDS011;44527;47.460;19.016;2024-02-23T11:37:07;11.05;;;5.28;;
58756;SDS011;44527;47.460;19.016;2024-02-23T11:40:12;11.60;;;4.70;;
58756;SDS011;44527;47.460;19.016;2024-02-23T11:43:16;9.27;;;4.43;;
58756;SDS011;44527;47.460;19.016;2024-02-23T11:46:19;10.52;;;5.35;;
58756;SDS011;44527;47.460;19.016;2024-02-23T11:49:26;8.13;;;4.18;;
58756;SDS011;44527;47.460;19.016;2024-02-23T11:52:30;14.32;;;4.28;;
58756;SDS011;44527;47.460;19.016;2024-02-23T11:55:32;14.68;;;4.28;;
58756;SDS011;44527;47.460;19.016;2024-02-23T11:58:35;6.80;;;3.85;;
58756;SDS011;44527;47.460;19.016;2024-02-23T12:01:38;6.53;;;3.80;;
58756;SDS011;44527;47.460;19.016;2024-02-23T12:04:40;5.32;;;2.83;;
58756;SDS011;44527;47.460;19.016;2024-02-23T12:07:43;6.28;;;2.85;;
58756;SDS011;44527;47.460;19.016;2024-02-23T12:10:49;5.07;;;2.87;;
58756;SDS011;44527;47.460;19.016;2024-02-23T12:13:51;5.40;;;2.92;;
58756;SDS011;44527;47.460;19.016;2024-02-23T12:16:54;5.35;;;2.67;;
58756;SDS011;44527;47.460;19.016;2024-02-23T12:19:59;4.60;;;2.47;;
58756;SDS011;44527;47.460;19.016;2024-02-23T12:23:03;3.78;;;2.20;;
58756;SDS011;44527;47.460;19.016;2024-02-23T12:26:05;4.87;;;2.55;;
58756;SDS011;44527;47.460;19.016;2024-02-23T12:29:08;5.80;;;2.42;;
58756;SDS011;44527;47.460;19.016;2024-02-23T12:32:12;7.65;;;3.78;;
58756;SDS011;44527;47.460;19.016;2024-02-23T12:35:14;4.90;;;2.58;;
58756;SDS011;44527;47.460;19.016;2024-02-23T12:38:18;5.62;;;2.62;;
58756;SDS011;44527;47.460;19.016;2024-02-23T12:41:20;5.60;;;3.08;;
58756;SDS011;44527;47.460;19.016;2024-02-23T12:44:23;6.00;;;3.20;;
58756;SDS011;44527;47.460;19.016;2024-02-23T12:47:26;5.87;;;2.95;;
58756;SDS011;44527;47.460;19.016;2024-02-23T12:50:32;6.78;;;3.08;;
58756;SDS011;44527;47.460;19.016;2024-02-23T12:53:38;6.32;;;3.40;;
58756;SDS011;44527;47.460;19.016;2024-02-23T12:56:42;8.80;;;3.92;;
58756;SDS011;44527;47.460;19.016;2024-02-23T12:59:44;6.45;;;3.50;;
58756;SDS011;44527;47.460;19.016;2024-02-23T13:02:47;7.97;;;4.15;;
58756;SDS011;44527;47.460;19.016;2024-02-23T13:05:50;9.15;;;4.07;;
58756;SDS011;44527;47.460;19.016;2024-02-23T13:08:53;10.05;;;4.97;;
58756;SDS011;44527;47.460;19.016;2024-02-23T13:11:55;10.30;;;6.03;;
58756;SDS011;44527;47.460;19.016;2024-02-23T13:14:59;13.27;;;5.53;;
58756;SDS011;44527;47.460;19.016;2024-02-23T13:18:02;11.05;;;4.87;;
58756;SDS011;44527;47.460;19.016;2024-02-23T13:21:04;9.50;;;5.28;;
58756;SDS011;44527;47.460;19.016;2024-02-23T13:24:07;10.38;;;5.72;;
58756;SDS011;44527;47.460;19.016;2024-02-23T13:27:09;11.02;;;6.30;;
58756;SDS011;44527;47.460;19.016;2024-02-23T13:30:13;12.68;;;6.22;;
58756;SDS011;44527;47.460;19.016;2024-02-23T13:33:15;10.27;;;5.62;;
58756;SDS011;44527;47.460;19.016;2024-02-23T13:36:19;10.32;;;6.50;;
58756;SDS011;44527;47.460;19.016;2024-02-23T13:39:21;18.42;;;6.45;;
58756;SDS011;44527;47.460;19.016;2024-02-23T13:42:23;14.75;;;5.75;;
58756;SDS011;44527;47.460;19.016;2024-02-23T13:45:26;12.73;;;6.07;;
58756;SDS011;44527;47.460;19.016;2024-02-23T13:48:29;14.85;;;6.37;;
58756;SDS011;44527;47.460;19.016;2024-02-23T13:51:31;10.63;;;6.10;;
58756;SDS011;44527;47.460;19.016;2024-02-23T13:54:34;13.60;;;6.87;;
58756;SDS011;44527;47.460;19.016;2024-02-23T13:57:37;11.80;;;6.05;;
58756;SDS011;44527;47.460;19.016;2024-02-23T14:00:39;10.57;;;6.68;;
58756;SDS011;44527;47.460;19.016;2024-02-23T14:03:42;14.85;;;7.07;;
58756;SDS011;44527;47.460;19.016;2024-02-23T14:06:44;13.95;;;6.43;;
58756;SDS011;44527;47.460;19.016;2024-02-23T14:09:47;13.32;;;6.40;;
58756;SDS011;44527;47.460;19.016;2024-02-23T14:12:49;14.57;;;7.35;;
58756;SDS011;44527;47.460;19.016;2024-02-23T14:15:53;17.02;;;6.97;;
58756;SDS011;44527;47.460;19.016;2024-02-23T14:18:55;13.07;;;7.65;;
58756;SDS011;44527;47.460;19.016;2024-02-23T14:21:58;13.60;;;6.87;;
58756;SDS011;44527;47.460;19.016;2024-02-23T14:25:00;16.85;;;7.95;;
58756;SDS011;44527;47.460;19.016;2024-02-23T14:28:03;12.40;;;7.00;;
58756;SDS011;44527;47.460;19.016;2024-02-23T14:31:05;16.37;;;7.55;;
58756;SDS011;44527;47.460;19.016;2024-02-23T14:34:08;13.35;;;7.72;;
58756;SDS011;44527;47.460;19.016;2024-02-23T14:37:10;15.82;;;7.40;;
58756;SDS011;44527;47.460;19.016;2024-02-23T14:40:13;17.75;;;7.70;;
58756;SDS011;44527;47.460;19.016;2024-02-23T14:43:16;12.93;;;7.53;;
58756;SDS011;44527;47.460;19.016;2024-02-23T14:46:20;11.70;;;7.37;;
58756;SDS011;44527;47.460;19.016;2024-02-23T14:49:22;15.38;;;7.10;;
58756;SDS011;44527;47.460;19.016;2024-02-23T14:52:25;16.55;;;7.45;;
58756;SDS011;44527;47.460;19.016;2024-02-23T14:55:27;16.60;;;7.55;;
58756;SDS011;44527;47.460;19.016;2024-02-23T14:58:29;19.37;;;7.82;;
58756;SDS011;44527;47.460;19.016;2024-02-23T15:01:32;19.87;;;8.38;;
58756;SDS011;44527;47.460;19.016;2024-02-23T15:04:34;16.45;;;7.32;;
58756;SDS011;44527;47.460;19.016;2024-02-23T15:07:37;19.75;;;7.82;;
58756;SDS011;44527;47.460;19.016;2024-02-23T15:10:39;27.77;;;8.13;;
58756;SDS011;44527;47.460;19.016;2024-02-23T15:13:41;12.63;;;7.47;;
58756;SDS011;44527;47.460;19.016;2024-02-23T15:16:44;13.60;;;7.50;;
58756;SDS011;44527;47.460;19.016;2024-02-23T15:19:47;16.85;;;8.07;;
58756;SDS011;44527;47.460;19.016;2024-02-23T15:22:49;19.27;;;8.23;;
58756;SDS011;44527;47.460;19.016;2024-02-23T15:25:52;11.85;;;7.60;;
58756;SDS011;44527;47.460;19.016;2024-02-23T15:29:08;18.77;;;8.15;;
58756;SDS011;44527;47.460;19.016;2024-02-23T15:32:10;17.40;;;7.53;;
58756;SDS011;44527;47.460;19.016;2024-02-23T15:35:13;14.35;;;7.45;;
58756;SDS011;44527;47.460;19.016;2024-02-23T15:38:16;14.77;;;7.57;;
58756;SDS011;44527;47.460;19.016;2024-02-23T15:41:18;15.55;;;8.02;;
58756;SDS011;44527;47.460;19.016;2024-02-23T15:44:21;21.37;;;6.95;;
58756;SDS011;44527;47.460;19.016;2024-02-23T15:47:23;14.07;;;7.85;;
58756;SDS011;44527;47.460;19.016;2024-02-23T15:50:25;13.50;;;7.00;;
58756;SDS011;44527;47.460;19.016;2024-02-23T15:53:50;20.55;;;7.95;;
58756;SDS011;44527;47.460;19.016;2024-02-23T15:56:52;16.33;;;7.05;;
58756;SDS011;44527;47.460;19.016;2024-02-23T15:59:55;10.93;;;7.03;;
58756;SDS011;44527;47.460;19.016;2024-02-23T16:03:05;11.48;;;7.35;;
58756;SDS011;44527;47.460;19.016;2024-02-23T16:06:08;16.10;;;7.53;;
58756;SDS011;44527;47.460;19.016;2024-02-23T16:09:10;13.95;;;7.05;;
58756;SDS011;44527;47.460;19.016;2024-02-23T16:12:17;13.50;;;7.72;;
58756;SDS011;44527;47.460;19.016;2024-02-23T16:15:19;14.23;;;7.57;;
58756;SDS011;44527;47.460;19.016;2024-02-23T16:18:22;16.33;;;8.15;;
58756;SDS011;44527;47.460;19.016;2024-02-23T16:21:24;15.73;;;7.85;;
58756;SDS011;44527;47.460;19.016;2024-02-23T16:24:28;16.02;;;8.10;;
58756;SDS011;44527;47.460;19.016;2024-02-23T16:27:31;15.73;;;7.75;;
58756;SDS011;44527;47.460;19.016;2024-02-23T16:30:33;14.25;;;7.82;;
58756;SDS011;44527;47.460;19.016;2024-02-23T16:33:35;13.75;;;7.65;;
58756;SDS011;44527;47.460;19.016;2024-02-23T16:36:38;21.50;;;8.25;;
58756;SDS011;44527;47.460;19.016;2024-02-23T16:39:43;20.25;;;8.85;;
58756;SDS011;44527;47.460;19.016;2024-02-23T16:42:45;19.90;;;9.20;;
58756;SDS011;44527;47.460;19.016;2024-02-23T16:45:47;13.00;;;8.02;;
58756;SDS011;44527;47.460;19.016;2024-02-23T16:48:50;15.57;;;8.23;;
58756;SDS011;44527;47.460;19.016;2024-02-23T16:51:52;23.02;;;10.90;;
58756;SDS011;44527;47.460;19.016;2024-02-23T16:54:55;23.05;;;10.95;;
58756;SDS011;44527;47.460;19.016;2024-02-23T16:57:57;20.17;;;8.98;;
58756;SDS011;44527;47.460;19.016;2024-02-23T17:01:00;17.95;;;9.02;;
58756;SDS011;44527;47.460;19.016;2024-02-23T17:04:03;21.98;;;9.23;;
58756;SDS011;44527;47.460;19.016;2024-02-23T17:07:06;19.95;;;10.07;;
58756;SDS011;44527;47.460;19.016;2024-02-23T17:10:08;19.08;;;8.45;;
58756;SDS011;44527;47.460;19.016;2024-02-23T17:13:11;15.82;;;8.52;;
58756;SDS011;44527;47.460;19.016;2024-02-23T17:16:13;29.37;;;9.18;;
58756;SDS011;44527;47.460;19.016;2024-02-23T17:19:16;29.20;;;13.25;;
58756;SDS011;44527;47.460;19.016;2024-02-23T17:22:20;31.40;;;10.15;;
58756;SDS011;44527;47.460;19.016;2024-02-23T17:25:26;24.05;;;9.77;;
58756;SDS011;44527;47.460;19.016;2024-02-23T17:28:29;20.27;;;9.48;;
58756;SDS011;44527;47.460;19.016;2024-02-23T17:31:32;28.65;;;10.13;;
58756;SDS011;44527;47.460;19.016;2024-02-23T17:34:34;21.30;;;8.88;;
58756;SDS011;44527;47.460;19.016;2024-02-23T17:37:37;21.73;;;9.90;;
58756;SDS011;44527;47.460;19.016;2024-02-23T17:40:40;19.70;;;9.80;;
58756;SDS011;44527;47.460;19.016;2024-02-23T17:43:42;22.25;;;10.07;;
58756;SDS011;44527;47.460;19.016;2024-02-23T17:46:45;21.77;;;9.90;;
58756;SDS011;44527;47.460;19.016;2024-02-23T17:49:50;19.62;;;9.80;;
58756;SDS011;44527;47.460;19.016;2024-02-23T17:52:52;22.52;;;10.40;;
58756;SDS011;44527;47.460;19.016;2024-02-23T17:55:55;16.05;;;9.13;;
58756;SDS011;44527;47.460;19.016;2024-02-23T17:58:59;17.98;;;9.63;;
58756;SDS011;44527;47.460;19.016;2024-02-23T18:02:02;19.00;;;9.73;;